createdAt,value
2017-08-07T00:00:51.726Z,101268.42
2017-08-07T00:01:57.793Z,101269.00
2017-08-07T00:03:03.507Z,101265.59
2017-08-07T00:04:09.535Z,101269.83
2017-08-07T00:05:16.528Z,101274.56
2017-08-07T00:06:25.926Z,101276.61
2017-08-07T00:07:32.055Z,101275.43
2017-08-07T00:08:38.081Z,101274.42
2017-08-07T00:09:48.026Z,101277.18
2017-08-07T00:10:55.841Z,101280.74
2017-08-07T00:12:01.985Z,101279.28
2017-08-07T00:13:08.056Z,101277.67
2017-08-07T00:14:13.901Z,101280.89
2017-08-07T00:15:19.936Z,101279.80
2017-08-07T00:16:25.985Z,101275.95
2017-08-07T00:17:31.953Z,101272.85
2017-08-07T00:18:38.004Z,101271.48
2017-08-07T00:19:44.063Z,101271.65
2017-08-07T00:20:54.908Z,101275.59
2017-08-07T00:22:00.981Z,101274.75
2017-08-07T00:23:07.070Z,101267.00
2017-08-07T00:24:13.161Z,101270.23
2017-08-07T00:25:19.211Z,101271.50
2017-08-07T00:26:25.269Z,101274.58
2017-08-07T00:27:31.325Z,101271.94
2017-08-07T00:28:37.394Z,101269.75
2017-08-07T00:29:43.285Z,101278.70
2017-08-07T00:30:49.320Z,101277.84
2017-08-07T00:31:55.358Z,101277.92
2017-08-07T00:33:01.506Z,101276.00
2017-08-07T00:34:07.573Z,101275.59
2017-08-07T00:35:13.618Z,101278.23
2017-08-07T00:36:19.653Z,101277.30
2017-08-07T00:37:25.688Z,101272.68
2017-08-07T00:38:31.796Z,101281.64
2017-08-07T00:39:37.903Z,101276.27
2017-08-07T00:40:43.925Z,101284.55
2017-08-07T00:41:49.961Z,101277.70
2017-08-07T00:42:56.035Z,101275.52
2017-08-07T00:44:02.129Z,101284.47
2017-08-07T00:45:08.221Z,101279.89
2017-08-07T00:46:14.246Z,101280.95
2017-08-07T00:47:20.296Z,101282.41
2017-08-07T00:48:26.325Z,101277.91
2017-08-07T00:49:32.417Z,101284.52
2017-08-07T00:50:38.490Z,101275.69
2017-08-07T00:51:44.520Z,101280.80
2017-08-07T00:52:52.752Z,101279.91
2017-08-07T00:53:58.796Z,101279.98
2017-08-07T00:55:04.880Z,101282.28
2017-08-07T00:56:10.982Z,101277.52
2017-08-07T00:57:17.069Z,101279.80
2017-08-07T00:58:23.149Z,101282.91
2017-08-07T00:59:29.181Z,101280.22
2017-08-07T01:00:35.223Z,101277.70
2017-08-07T01:01:41.103Z,101280.82
2017-08-07T01:02:46.972Z,101280.57
2017-08-07T01:03:53.036Z,101282.98
2017-08-07T01:04:59.096Z,101281.07
2017-08-07T01:06:05.165Z,101280.83
2017-08-07T01:07:11.253Z,101281.21
2017-08-07T01:08:17.329Z,101276.72
2017-08-07T01:09:23.371Z,101280.47
2017-08-07T01:10:30.386Z,101276.31
2017-08-07T01:11:36.443Z,101267.77
2017-08-07T01:12:42.527Z,101275.67
2017-08-07T01:13:48.573Z,101269.95
2017-08-07T01:14:54.618Z,101271.45
2017-08-07T01:16:00.685Z,101275.39
2017-08-07T01:17:06.736Z,101272.59
2017-08-07T01:18:12.900Z,101274.61
2017-08-07T01:19:18.947Z,101276.30
2017-08-07T01:20:24.985Z,101275.39
2017-08-07T01:21:31.541Z,101272.45
2017-08-07T01:22:37.423Z,101273.20
2017-08-07T01:23:43.512Z,101270.38
2017-08-07T01:24:49.581Z,101268.11
2017-08-07T01:25:55.652Z,101269.73
2017-08-07T01:27:01.782Z,101270.30
2017-08-07T01:28:07.812Z,101261.33
2017-08-07T01:29:13.927Z,101263.78
2017-08-07T01:30:19.971Z,101264.20
2017-08-07T01:31:26.032Z,101267.63
2017-08-07T01:32:31.884Z,101266.05
2017-08-07T01:33:37.905Z,101263.18
2017-08-07T01:34:43.969Z,101266.80
2017-08-07T01:35:50.871Z,101266.67
2017-08-07T01:36:56.905Z,101269.07
2017-08-07T01:38:02.941Z,101261.01
2017-08-07T01:39:08.988Z,101261.47
2017-08-07T01:40:15.071Z,101261.36
2017-08-07T01:41:21.104Z,101266.15
2017-08-07T01:42:27.160Z,101265.59
2017-08-07T01:43:33.284Z,101257.25
2017-08-07T01:44:39.330Z,101262.98
2017-08-07T01:45:45.027Z,101264.88
2017-08-07T01:46:50.347Z,101263.78
2017-08-07T01:47:56.382Z,101261.77
2017-08-07T01:49:01.880Z,101268.36
2017-08-07T01:50:07.580Z,101262.98
2017-08-07T01:51:13.660Z,101267.29
2017-08-07T01:52:19.129Z,101257.35
2017-08-07T01:53:24.778Z,101262.31
2017-08-07T01:54:30.803Z,101261.50
2017-08-07T01:55:36.658Z,101262.93
2017-08-07T01:56:42.733Z,101261.18
2017-08-07T01:57:48.779Z,101265.59
2017-08-07T01:58:54.829Z,101258.36
2017-08-07T02:00:00.505Z,101261.88
2017-08-07T02:01:05.621Z,101260.91
2017-08-07T02:02:10.805Z,101256.03
2017-08-07T02:03:16.877Z,101256.81
2017-08-07T02:04:22.905Z,101258.54
2017-08-07T02:05:28.262Z,101253.31
2017-08-07T02:06:34.306Z,101255.14
2017-08-07T02:07:40.459Z,101255.30
2017-08-07T02:08:46.474Z,101256.89
2017-08-07T02:09:52.521Z,101261.60
2017-08-07T02:10:58.590Z,101256.89
2017-08-07T02:12:04.641Z,101261.20
2017-08-07T02:13:10.503Z,101269.41
2017-08-07T02:14:16.570Z,101258.30
2017-08-07T02:15:22.622Z,101261.83
2017-08-07T02:16:28.650Z,101260.19
2017-08-07T02:17:34.686Z,101265.16
2017-08-07T02:18:40.628Z,101257.22
2017-08-07T02:19:46.650Z,101261.20
2017-08-07T02:20:52.712Z,101264.55
2017-08-07T02:21:58.741Z,101264.84
2017-08-07T02:23:04.799Z,101264.68
2017-08-07T02:24:10.854Z,101266.94
2017-08-07T02:25:16.865Z,101274.55
2017-08-07T02:26:22.912Z,101279.05
2017-08-07T02:27:28.940Z,101272.59
2017-08-07T02:28:35.002Z,101270.39
2017-08-07T02:29:41.133Z,101273.67
2017-08-07T02:30:47.163Z,101273.46
2017-08-07T02:31:54.182Z,101268.80
2017-08-07T02:33:00.224Z,101264.59
2017-08-07T02:34:06.129Z,101268.26
2017-08-07T02:35:12.231Z,101270.76
2017-08-07T02:36:18.264Z,101264.57
2017-08-07T02:37:24.297Z,101264.38
2017-08-07T02:38:30.331Z,101262.64
2017-08-07T02:39:36.363Z,101268.25
2017-08-07T02:40:42.429Z,101270.25
2017-08-07T02:41:48.443Z,101270.13
2017-08-07T02:42:54.286Z,101265.78
2017-08-07T02:44:00.434Z,101261.98
2017-08-07T02:45:06.674Z,101262.71
2017-08-07T02:46:12.770Z,101254.77
2017-08-07T02:47:18.815Z,101260.28
2017-08-07T02:48:24.857Z,101258.39
2017-08-07T02:49:30.897Z,101257.18
2017-08-07T02:50:36.977Z,101251.77
2017-08-07T02:51:43.070Z,101256.30
2017-08-07T02:52:49.112Z,101250.34
2017-08-07T02:53:55.145Z,101253.44
2017-08-07T02:55:01.225Z,101252.45
2017-08-07T02:56:07.257Z,101251.27
2017-08-07T02:57:13.349Z,101256.75
2017-08-07T02:58:19.213Z,101248.73
2017-08-07T02:59:25.232Z,101251.13
2017-08-07T03:00:31.305Z,101248.69
2017-08-07T03:01:37.364Z,101250.22
2017-08-07T03:02:43.434Z,101244.16
2017-08-07T03:03:49.266Z,101240.64
2017-08-07T03:04:55.293Z,101246.58
2017-08-07T03:06:01.354Z,101243.44
2017-08-07T03:07:07.378Z,101248.27
2017-08-07T03:08:13.451Z,101249.14
2017-08-07T03:09:24.588Z,101250.34
2017-08-07T03:10:30.454Z,101248.70
2017-08-07T03:11:40.528Z,101242.16
2017-08-07T03:12:46.569Z,101243.30
2017-08-07T03:13:52.645Z,101251.32
2017-08-07T03:15:00.320Z,101246.94
2017-08-07T03:16:06.424Z,101241.69
2017-08-07T03:17:12.471Z,101240.78
2017-08-07T03:18:18.540Z,101240.92
2017-08-07T03:19:24.629Z,101242.46
2017-08-07T03:20:31.573Z,101239.55
2017-08-07T03:21:37.602Z,101238.89
2017-08-07T03:22:43.646Z,101240.41
2017-08-07T03:23:49.707Z,101237.28
2017-08-07T03:24:55.788Z,101242.67
2017-08-07T03:26:01.990Z,101236.31
2017-08-07T03:27:08.225Z,101235.39
2017-08-07T03:28:14.301Z,101238.03
2017-08-07T03:29:20.342Z,101236.67
2017-08-07T03:30:26.416Z,101235.50
2017-08-07T03:31:32.444Z,101238.00
2017-08-07T03:32:38.489Z,101230.53
2017-08-07T03:33:44.560Z,101230.27
2017-08-07T03:34:50.406Z,101228.34
2017-08-07T03:35:56.469Z,101233.57
2017-08-07T03:37:02.583Z,101219.74
2017-08-07T03:38:08.640Z,101226.77
2017-08-07T03:39:14.725Z,101232.53
2017-08-07T03:40:20.050Z,101235.93
2017-08-07T03:41:26.157Z,101233.59
2017-08-07T03:42:32.199Z,101238.48
2017-08-07T03:43:38.268Z,101234.27
2017-08-07T03:44:44.305Z,101239.80
2017-08-07T03:45:50.343Z,101234.98
2017-08-07T03:46:56.449Z,101234.52
2017-08-07T03:48:02.469Z,101235.96
2017-08-07T03:49:08.505Z,101239.31
2017-08-07T03:50:14.540Z,101233.89
2017-08-07T03:51:20.586Z,101240.58
2017-08-07T03:52:26.677Z,101236.11
2017-08-07T03:53:32.702Z,101236.05
2017-08-07T03:54:38.738Z,101235.94
2017-08-07T03:55:44.776Z,101237.10
2017-08-07T03:56:50.813Z,101240.67
2017-08-07T03:57:56.912Z,101237.16
2017-08-07T03:59:02.971Z,101238.67
2017-08-07T04:00:09.029Z,101238.48
2017-08-07T04:01:15.105Z,101229.65
2017-08-07T04:02:21.151Z,101232.72
2017-08-07T04:03:27.215Z,101237.99
2017-08-07T04:04:33.245Z,101239.91
2017-08-07T04:05:39.292Z,101239.05
2017-08-07T04:06:45.361Z,101243.28
2017-08-07T04:07:51.398Z,101238.83
2017-08-07T04:08:57.461Z,101241.66
2017-08-07T04:10:03.581Z,101240.50
2017-08-07T04:11:09.687Z,101231.81
2017-08-07T04:12:15.765Z,101229.83
2017-08-07T04:13:21.801Z,101229.34
2017-08-07T04:14:27.902Z,101224.98
2017-08-07T04:15:33.963Z,101232.74
2017-08-07T04:16:40.025Z,101232.27
2017-08-07T04:17:46.117Z,101225.56
2017-08-07T04:18:52.250Z,101229.20
2017-08-07T04:19:58.689Z,101228.75
2017-08-07T04:21:04.929Z,101227.73
2017-08-07T04:22:10.961Z,101226.88
2017-08-07T04:23:17.068Z,101233.03
2017-08-07T04:24:22.944Z,101230.02
2017-08-07T04:25:29.014Z,101234.17
2017-08-07T04:26:35.062Z,101231.56
2017-08-07T04:27:41.090Z,101231.83
2017-08-07T04:28:47.173Z,101235.77
2017-08-07T04:29:53.326Z,101231.15
2017-08-07T04:30:59.410Z,101230.42
2017-08-07T04:32:05.448Z,101234.51
2017-08-07T04:33:11.498Z,101230.29
2017-08-07T04:34:17.603Z,101225.59
2017-08-07T04:35:23.671Z,101222.25
2017-08-07T04:36:29.743Z,101221.73
2017-08-07T04:37:35.749Z,101222.31
2017-08-07T04:38:41.780Z,101224.66
2017-08-07T04:39:47.794Z,101225.14
2017-08-07T04:40:53.806Z,101228.80
2017-08-07T04:41:59.882Z,101227.80
2017-08-07T04:43:05.916Z,101226.61
2017-08-07T04:44:11.934Z,101224.52
2017-08-07T04:45:17.938Z,101228.20
2017-08-07T04:46:23.973Z,101221.59
2017-08-07T04:47:30.052Z,101220.70
2017-08-07T04:48:36.071Z,101219.99
2017-08-07T04:49:42.119Z,101220.63
2017-08-07T04:50:48.146Z,101218.54
2017-08-07T04:51:54.225Z,101222.00
2017-08-07T04:53:00.292Z,101218.20
2017-08-07T04:54:06.317Z,101220.84
2017-08-07T04:55:12.371Z,101220.09
2017-08-07T04:56:18.415Z,101221.75
2017-08-07T04:57:24.505Z,101224.77
2017-08-07T04:58:30.579Z,101225.64
2017-08-07T04:59:36.590Z,101220.39
2017-08-07T05:00:42.624Z,101226.83
2017-08-07T05:01:48.644Z,101216.13
2017-08-07T05:02:54.675Z,101217.02
2017-08-07T05:04:00.717Z,101218.62
2017-08-07T05:05:06.795Z,101218.00
2017-08-07T05:06:12.843Z,101217.63
2017-08-07T05:07:18.881Z,101218.37
2017-08-07T05:08:24.896Z,101219.89
2017-08-07T05:09:30.960Z,101215.02
2017-08-07T05:10:36.987Z,101217.09
2017-08-07T05:11:43.061Z,101216.66
2017-08-07T05:12:49.085Z,101217.66
2017-08-07T05:13:56.583Z,101218.48
2017-08-07T05:15:05.976Z,101221.97
2017-08-07T05:16:13.450Z,101214.38
2017-08-07T05:17:21.149Z,101218.73
2017-08-07T05:18:30.667Z,101220.86
2017-08-07T05:19:38.709Z,101217.64
2017-08-07T05:20:45.540Z,101221.11
2017-08-07T05:21:51.555Z,101224.95
2017-08-07T05:22:57.563Z,101228.30
2017-08-07T05:24:03.568Z,101220.66
2017-08-07T05:25:09.590Z,101221.27
2017-08-07T05:26:15.636Z,101217.05
2017-08-07T05:27:21.639Z,101224.31
2017-08-07T05:28:27.644Z,101221.33
2017-08-07T05:29:33.671Z,101217.14
2017-08-07T05:30:39.702Z,101218.89
2017-08-07T05:31:45.765Z,101218.76
2017-08-07T05:32:51.771Z,101215.16
2017-08-07T05:33:57.770Z,101216.69
2017-08-07T05:35:03.793Z,101212.77
2017-08-07T05:36:09.816Z,101216.64
2017-08-07T05:37:15.857Z,101220.30
2017-08-07T05:38:21.895Z,101215.64
2017-08-07T05:39:27.926Z,101224.23
2017-08-07T05:40:33.944Z,101220.77
2017-08-07T05:41:39.980Z,101218.80
2017-08-07T05:42:46.030Z,101228.53
2017-08-07T05:43:52.060Z,101221.61
2017-08-07T05:44:58.081Z,101218.41
2017-08-07T05:46:04.081Z,101217.34
2017-08-07T05:47:10.176Z,101220.06
2017-08-07T05:48:16.235Z,101220.09
2017-08-07T05:49:22.241Z,101219.40
2017-08-07T05:50:28.277Z,101224.93
2017-08-07T05:51:34.303Z,101221.70
2017-08-07T05:52:40.132Z,101215.70
2017-08-07T05:53:46.180Z,101219.24
2017-08-07T05:54:52.193Z,101216.84
2017-08-07T05:55:58.224Z,101218.69
2017-08-07T05:57:04.249Z,101213.05
2017-08-07T05:58:10.283Z,101218.25
2017-08-07T05:59:16.337Z,101221.00
2017-08-07T06:00:22.345Z,101220.81
2017-08-07T06:01:28.186Z,101215.84
2017-08-07T06:02:34.196Z,101221.44
2017-08-07T06:03:40.199Z,101216.64
2017-08-07T06:04:46.256Z,101218.30
2017-08-07T06:05:52.282Z,101217.80
2017-08-07T06:06:58.300Z,101214.21
2017-08-07T06:08:04.301Z,101211.84
2017-08-07T06:09:10.306Z,101211.78
2017-08-07T06:10:16.358Z,101213.92
2017-08-07T06:11:22.383Z,101211.71
2017-08-07T06:12:28.472Z,101212.44
2017-08-07T06:13:35.481Z,101213.11
2017-08-07T06:14:43.228Z,101213.83
2017-08-07T06:15:51.092Z,101213.78
2017-08-07T06:16:59.639Z,101209.07
2017-08-07T06:18:07.296Z,101210.95
2017-08-07T06:19:14.673Z,101212.20
2017-08-07T06:20:23.011Z,101210.00
2017-08-07T06:21:30.904Z,101208.12
2017-08-07T06:22:38.476Z,101213.95
2017-08-07T06:23:46.048Z,101208.72
2017-08-07T06:24:55.421Z,101214.20
2017-08-07T06:26:03.857Z,101210.11
2017-08-07T06:27:13.222Z,101215.13
2017-08-07T06:28:19.712Z,101215.53
2017-08-07T06:29:25.768Z,101207.86
2017-08-07T06:30:31.816Z,101212.95
2017-08-07T06:31:37.857Z,101207.26
2017-08-07T06:32:43.915Z,101208.41
2017-08-07T06:33:49.940Z,101202.47
2017-08-07T06:34:55.959Z,101198.23
2017-08-07T06:36:02.251Z,101207.73
2017-08-07T06:37:08.266Z,101202.75
2017-08-07T06:38:14.154Z,101204.39
2017-08-07T06:39:20.190Z,101204.38
2017-08-07T06:40:26.228Z,101204.14
2017-08-07T06:41:32.242Z,101203.58
2017-08-07T06:42:38.258Z,101200.24
2017-08-07T06:43:44.331Z,101201.35
2017-08-07T06:44:50.352Z,101199.52
2017-08-07T06:45:56.360Z,101198.95
2017-08-07T06:47:02.510Z,101199.98
2017-08-07T06:48:08.525Z,101206.47
2017-08-07T06:49:14.595Z,101203.94
2017-08-07T06:50:20.628Z,101202.87
2017-08-07T06:51:26.653Z,101206.55
2017-08-07T06:52:32.674Z,101207.00
2017-08-07T06:53:38.701Z,101208.04
2017-08-07T06:54:44.760Z,101205.78
2017-08-07T06:55:50.782Z,101200.58
2017-08-07T06:56:56.845Z,101206.37
2017-08-07T06:58:02.891Z,101207.00
2017-08-07T06:59:09.276Z,101206.55
2017-08-07T07:00:15.665Z,101200.87
2017-08-07T07:01:21.480Z,101205.05
2017-08-07T07:02:27.505Z,101198.22
2017-08-07T07:03:33.539Z,101204.97
2017-08-07T07:04:39.538Z,101200.25
2017-08-07T07:05:45.587Z,101204.06
2017-08-07T07:06:51.597Z,101200.83
2017-08-07T07:07:57.653Z,101200.55
2017-08-07T07:09:03.615Z,101194.08
2017-08-07T07:10:09.680Z,101197.11
2017-08-07T07:11:15.718Z,101195.98
2017-08-07T07:12:21.750Z,101196.89
2017-08-07T07:13:27.801Z,101198.02
2017-08-07T07:14:34.220Z,101196.34
2017-08-07T07:15:40.353Z,101195.27
2017-08-07T07:16:46.418Z,101199.43
2017-08-07T07:17:52.439Z,101198.80
2017-08-07T07:18:58.457Z,101195.59
2017-08-07T07:20:04.487Z,101193.00
2017-08-07T07:21:10.510Z,101193.50
2017-08-07T07:22:16.557Z,101198.47
2017-08-07T07:23:22.592Z,101191.48
2017-08-07T07:24:28.636Z,101190.31
2017-08-07T07:25:34.662Z,101192.57
2017-08-07T07:26:40.685Z,101196.01
2017-08-07T07:27:46.749Z,101190.95
2017-08-07T07:28:52.841Z,101186.71
2017-08-07T07:29:58.876Z,101184.70
2017-08-07T07:31:04.908Z,101186.52
2017-08-07T07:32:11.629Z,101186.25
2017-08-07T07:33:17.737Z,101181.31
2017-08-07T07:34:23.790Z,101178.80
2017-08-07T07:35:29.631Z,101175.22
2017-08-07T07:36:35.645Z,101170.00
2017-08-07T07:37:41.672Z,101174.69
2017-08-07T07:38:47.729Z,101174.44
2017-08-07T07:39:53.838Z,101171.25
2017-08-07T07:40:59.853Z,101166.11
2017-08-07T07:42:05.899Z,101166.36
2017-08-07T07:43:11.908Z,101162.92
2017-08-07T07:44:17.984Z,101169.37
2017-08-07T07:45:24.016Z,101165.59
2017-08-07T07:46:29.859Z,101167.86
2017-08-07T07:47:35.901Z,101165.81
2017-08-07T07:48:41.916Z,101167.05
2017-08-07T07:49:48.066Z,101169.46
2017-08-07T07:50:54.124Z,101169.51
2017-08-07T07:51:59.961Z,101166.97
2017-08-07T07:53:05.843Z,101164.42
2017-08-07T07:54:11.897Z,101160.00
2017-08-07T07:55:17.964Z,101156.52
2017-08-07T07:56:24.020Z,101153.53
2017-08-07T07:57:30.070Z,101157.59
2017-08-07T07:58:36.093Z,101155.95
2017-08-07T07:59:42.116Z,101155.13
2017-08-07T08:00:48.189Z,101155.82
2017-08-07T08:01:54.226Z,101153.67
2017-08-07T08:03:00.380Z,101157.73
2017-08-07T08:04:06.493Z,101158.06
2017-08-07T08:05:12.321Z,101154.57
2017-08-07T08:06:18.395Z,101157.01
2017-08-07T08:07:24.412Z,101149.39
2017-08-07T08:08:30.243Z,101152.81
2017-08-07T08:09:36.255Z,101152.69
2017-08-07T08:10:42.291Z,101149.95
2017-08-07T08:11:48.366Z,101151.85
2017-08-07T08:12:54.427Z,101154.91
2017-08-07T08:14:00.548Z,101151.03
2017-08-07T08:15:06.592Z,101152.06
2017-08-07T08:16:12.644Z,101149.17
2017-08-07T08:17:18.747Z,101147.58
2017-08-07T08:18:24.790Z,101152.06
2017-08-07T08:19:30.845Z,101149.13
2017-08-07T08:20:36.888Z,101147.63
2017-08-07T08:21:42.925Z,101141.75
2017-08-07T08:22:49.002Z,101150.52
2017-08-07T08:23:55.049Z,101143.66
2017-08-07T08:25:01.089Z,101148.81
2017-08-07T08:26:07.150Z,101145.52
2017-08-07T08:27:13.202Z,101147.67
2017-08-07T08:28:19.273Z,101143.62
2017-08-07T08:29:25.309Z,101142.91
2017-08-07T08:30:31.338Z,101137.51
2017-08-07T08:31:37.412Z,101139.00
2017-08-07T08:32:43.446Z,101141.84
2017-08-07T08:33:49.531Z,101142.53
2017-08-07T08:34:55.562Z,101140.70
2017-08-07T08:36:01.634Z,101147.44
2017-08-07T08:37:07.669Z,101138.20
2017-08-07T08:38:13.773Z,101139.86
2017-08-07T08:39:19.870Z,101138.52
2017-08-07T08:40:25.897Z,101139.71
2017-08-07T08:41:31.933Z,101139.33
2017-08-07T08:42:37.963Z,101138.95
2017-08-07T08:43:43.980Z,101137.71
2017-08-07T08:44:50.054Z,101131.95
2017-08-07T08:45:56.115Z,101137.03
2017-08-07T08:47:02.210Z,101131.95
2017-08-07T08:48:08.286Z,101130.86
2017-08-07T08:49:14.168Z,101134.70
2017-08-07T08:50:20.250Z,101127.14
2017-08-07T08:51:26.272Z,101129.31
2017-08-07T08:52:32.315Z,101128.48
2017-08-07T08:53:38.363Z,101125.15
2017-08-07T08:54:44.423Z,101120.19
2017-08-07T08:55:50.504Z,101122.06
2017-08-07T08:56:56.559Z,101122.06
2017-08-07T08:58:02.674Z,101125.63
2017-08-07T08:59:08.752Z,101123.14
2017-08-07T09:00:14.797Z,101127.53
2017-08-07T09:01:20.689Z,101124.92
2017-08-07T09:02:26.745Z,101127.70
2017-08-07T09:03:32.444Z,101120.30
2017-08-07T09:04:38.489Z,101118.13
2017-08-07T09:05:44.160Z,101115.94
2017-08-07T09:06:50.258Z,101120.91
2017-08-07T09:07:56.292Z,101113.84
2017-08-07T09:09:02.380Z,101114.77
2017-08-07T09:10:08.412Z,101120.17
2017-08-07T09:11:14.459Z,101113.01
2017-08-07T09:12:20.530Z,101112.05
2017-08-07T09:13:26.637Z,101117.41
2017-08-07T09:14:32.699Z,101114.58
2017-08-07T09:15:38.733Z,101110.78
2017-08-07T09:16:44.781Z,101111.73
2017-08-07T09:17:50.868Z,101109.45
2017-08-07T09:18:56.931Z,101112.89
2017-08-07T09:20:03.017Z,101111.21
2017-08-07T09:21:09.051Z,101110.25
2017-08-07T09:22:15.086Z,101108.84
2017-08-07T09:23:21.170Z,101106.19
2017-08-07T09:24:27.215Z,101098.39
2017-08-07T09:25:33.261Z,101093.18
2017-08-07T09:26:39.341Z,101099.20
2017-08-07T09:27:45.404Z,101099.88
2017-08-07T09:28:51.492Z,101099.12
2017-08-07T09:29:57.534Z,101092.98
2017-08-07T09:31:03.837Z,101092.45
2017-08-07T09:32:09.878Z,101095.78
2017-08-07T09:33:15.893Z,101090.20
2017-08-07T09:34:21.962Z,101086.80
2017-08-07T09:35:28.018Z,101088.43
2017-08-07T09:36:34.072Z,101095.28
2017-08-07T09:37:40.174Z,101084.32
2017-08-07T09:38:46.238Z,101091.32
2017-08-07T09:39:52.321Z,101087.67
2017-08-07T09:40:58.758Z,101088.55
2017-08-07T09:42:05.201Z,101089.93
2017-08-07T09:43:11.270Z,101085.95
2017-08-07T09:44:17.322Z,101086.14
2017-08-07T09:45:23.422Z,101082.61
2017-08-07T09:46:29.490Z,101079.32
2017-08-07T09:47:35.537Z,101081.69
2017-08-07T09:48:41.590Z,101082.11
2017-08-07T09:49:47.627Z,101078.88
2017-08-07T09:50:53.696Z,101082.84
2017-08-07T09:51:59.745Z,101072.79
2017-08-07T09:53:05.780Z,101078.64
2017-08-07T09:54:11.806Z,101083.15
2017-08-07T09:55:17.839Z,101074.48
2017-08-07T09:56:23.921Z,101067.95
2017-08-07T09:57:29.958Z,101065.72
2017-08-07T09:58:35.997Z,101066.84
2017-08-07T09:59:42.024Z,101066.63
2017-08-07T10:00:48.069Z,101059.97
2017-08-07T10:01:54.166Z,101062.62
2017-08-07T10:03:00.301Z,101060.66
2017-08-07T10:04:06.394Z,101058.75
2017-08-07T10:05:12.449Z,101055.06
2017-08-07T10:06:18.514Z,101054.88
2017-08-07T10:07:24.600Z,101060.89
2017-08-07T10:08:30.661Z,101056.39
2017-08-07T10:09:36.717Z,101061.16
2017-08-07T10:10:42.755Z,101055.29
2017-08-07T10:11:48.798Z,101052.83
2017-08-07T10:12:54.883Z,101057.88
2017-08-07T10:14:01.024Z,101052.88
2017-08-07T10:15:07.406Z,101049.08
2017-08-07T10:16:13.906Z,101050.14
2017-08-07T10:17:19.950Z,101044.66
2017-08-07T10:18:26.030Z,101051.09
2017-08-07T10:19:32.061Z,101048.42
2017-08-07T10:20:38.101Z,101045.23
2017-08-07T10:21:44.165Z,101045.31
2017-08-07T10:22:55.065Z,101053.67
2017-08-07T10:24:01.251Z,101050.36
2017-08-07T10:25:06.971Z,101053.94
2017-08-07T10:26:13.054Z,101053.19
2017-08-07T10:27:19.134Z,101052.09
2017-08-07T10:28:25.154Z,101052.75
2017-08-07T10:29:31.241Z,101047.23
2017-08-07T10:30:37.303Z,101043.98
2017-08-07T10:31:43.385Z,101046.94
2017-08-07T10:32:49.440Z,101039.31
2017-08-07T10:33:55.759Z,101046.31
2017-08-07T10:35:01.860Z,101042.57
2017-08-07T10:36:07.924Z,101041.04
2017-08-07T10:37:13.980Z,101036.62
2017-08-07T10:38:20.044Z,101039.57
2017-08-07T10:39:26.104Z,101038.02
2017-08-07T10:40:32.176Z,101043.55
2017-08-07T10:41:38.251Z,101035.64
2017-08-07T10:42:44.309Z,101036.19
2017-08-07T10:43:50.344Z,101029.78
2017-08-07T10:44:56.400Z,101035.22
2017-08-07T10:46:02.602Z,101030.21
2017-08-07T10:47:08.669Z,101031.70
2017-08-07T10:48:14.724Z,101022.99
2017-08-07T10:49:20.746Z,101029.08
2017-08-07T10:50:26.831Z,101031.21
2017-08-07T10:51:32.913Z,101025.32
2017-08-07T10:52:38.968Z,101028.73
2017-08-07T10:53:45.037Z,101024.20
2017-08-07T10:54:51.093Z,101025.54
2017-08-07T10:55:57.169Z,101023.13
2017-08-07T10:57:03.266Z,101027.55
2017-08-07T10:58:09.323Z,101026.50
2017-08-07T10:59:15.354Z,101015.12
2017-08-07T11:00:21.388Z,101022.48
2017-08-07T11:01:27.288Z,101013.87
2017-08-07T11:02:33.409Z,101014.02
2017-08-07T11:03:39.446Z,101009.91
2017-08-07T11:04:45.525Z,101009.38
2017-08-07T11:05:51.569Z,101015.63
2017-08-07T11:06:57.619Z,101020.44
2017-08-07T11:08:03.695Z,101011.31
2017-08-07T11:09:09.757Z,101010.22
2017-08-07T11:10:15.835Z,101014.33
2017-08-07T11:11:21.879Z,101011.34
2017-08-07T11:12:27.965Z,101017.13
2017-08-07T11:13:34.059Z,101009.18
2017-08-07T11:14:40.123Z,101017.64
2017-08-07T11:15:46.183Z,101019.19
2017-08-07T11:16:52.245Z,101015.72
2017-08-07T11:17:58.303Z,101012.84
2017-08-07T11:19:04.395Z,101000.91
2017-08-07T11:20:10.441Z,101004.33
2017-08-07T11:21:16.303Z,101006.34
2017-08-07T11:22:22.335Z,101002.02
2017-08-07T11:23:28.397Z,100993.75
2017-08-07T11:24:34.504Z,100996.80
2017-08-07T11:25:40.560Z,100989.53
2017-08-07T11:26:46.618Z,100995.16
2017-08-07T11:27:52.689Z,100996.02
2017-08-07T11:28:58.731Z,100996.14
2017-08-07T11:30:04.881Z,100990.37
2017-08-07T11:31:10.983Z,101000.23
2017-08-07T11:32:17.014Z,100996.72
2017-08-07T11:33:23.044Z,101000.38
2017-08-07T11:34:29.103Z,100999.83
2017-08-07T11:35:35.184Z,100996.72
2017-08-07T11:36:41.225Z,100993.06
2017-08-07T11:37:47.286Z,100992.78
2017-08-07T11:38:53.316Z,100989.73
2017-08-07T11:39:59.356Z,100990.20
2017-08-07T11:41:05.464Z,100990.66
2017-08-07T11:42:11.489Z,100983.27
2017-08-07T11:43:17.524Z,100982.19
2017-08-07T11:44:23.596Z,100980.70
2017-08-07T11:45:29.653Z,100979.36
2017-08-07T11:46:35.729Z,100973.18
2017-08-07T11:47:41.821Z,100969.28
2017-08-07T11:48:47.878Z,100970.42
2017-08-07T11:49:53.928Z,100970.38
2017-08-07T11:51:00.067Z,100973.56
2017-08-07T11:52:06.219Z,100965.48
2017-08-07T11:53:12.278Z,100965.80
2017-08-07T11:54:18.321Z,100964.30
2017-08-07T11:55:24.356Z,100968.00
2017-08-07T11:56:30.425Z,100964.72
2017-08-07T11:57:36.527Z,100968.09
2017-08-07T11:58:42.577Z,100967.69
2017-08-07T11:59:48.647Z,100961.53
2017-08-07T12:00:54.782Z,100961.11
2017-08-07T12:02:00.851Z,100963.25
2017-08-07T12:03:07.025Z,100962.30
2017-08-07T12:04:13.070Z,100962.87
2017-08-07T12:05:19.147Z,100954.84
2017-08-07T12:06:25.225Z,100951.17
2017-08-07T12:07:31.274Z,100955.39
2017-08-07T12:08:37.372Z,100950.73
2017-08-07T12:09:43.449Z,100950.35
2017-08-07T12:10:49.540Z,100957.53
2017-08-07T12:11:55.645Z,100961.91
2017-08-07T12:13:01.718Z,100950.62
2017-08-07T12:14:07.884Z,100949.23
2017-08-07T12:15:14.002Z,100947.47
2017-08-07T12:16:20.099Z,100955.06
2017-08-07T12:17:26.166Z,100952.19
2017-08-07T12:18:32.219Z,100950.94
2017-08-07T12:19:38.305Z,100948.17
2017-08-07T12:20:44.377Z,100947.63
2017-08-07T12:21:50.453Z,100956.28
2017-08-07T12:22:56.521Z,100948.18
2017-08-07T12:24:02.676Z,100947.05
2017-08-07T12:25:08.749Z,100948.23
2017-08-07T12:26:14.805Z,100940.30
2017-08-07T12:27:20.861Z,100940.91
2017-08-07T12:28:26.937Z,100937.95
2017-08-07T12:29:32.979Z,100944.06
2017-08-07T12:30:39.077Z,100940.30
2017-08-07T12:31:45.113Z,100943.98
2017-08-07T12:32:51.156Z,100933.30
2017-08-07T12:33:57.213Z,100940.30
2017-08-07T12:35:03.341Z,100937.89